Time;durP1;ratioP1;P1;durP2;ratioP2;P2;SDS_P1;SDS_P2;PMS_P1;PMS_P2;Temp;Humidity;BMP_temperature;BMP_pressure;BME280_temperature;BME280_humidity;BME280_pressure;Samples;Min_cycle;Max_cycle;Signal;HPM_P1;HPM_P2
2022/05/06 00:01:04;;;;;;;26.80;18.80;;;12.60;99.90;;;12.84;69.30;98154.31;5007393;28;20544;-45
2022/05/06 00:03:31;;;;;;;28.33;19.63;;;12.70;99.90;;;12.88;68.92;98153.81;5008970;28;20244;-46
2022/05/06 00:05:59;;;;;;;29.55;19.48;;;12.70;99.90;;;12.87;68.99;98156.66;5007268;28;20064;-48
2022/05/06 00:08:28;;;;;;;24.77;18.67;;;12.70;99.90;;;12.91;68.91;98155.31;5005842;28;20050;-44
2022/05/06 00:10:56;;;;;;;27.35;18.38;;;12.70;99.90;;;12.90;68.66;98150.97;5007467;28;20064;-45
2022/05/06 00:13:23;;;;;;;27.05;18.73;;;12.70;99.90;;;12.95;68.92;98154.84;5008244;28;20057;-45
2022/05/06 00:15:51;;;;;;;26.15;18.05;;;12.70;99.90;;;12.92;68.93;98154.31;5008240;28;20390;-43
2022/05/06 00:18:20;;;;;;;28.15;19.58;;;12.70;99.90;;;12.96;68.72;98153.00;5008563;28;20050;-44
2022/05/06 00:20:48;;;;;;;28.38;19.48;;;12.70;99.90;;;12.82;69.13;98150.97;5006895;28;20058;-46
2022/05/06 00:23:16;;;;;;;34.45;19.98;;;12.70;99.90;;;12.83;69.14;98152.63;5006950;28;20062;-46
2022/05/06 00:25:43;;;;;;;28.70;21.35;;;12.60;99.90;;;12.93;68.83;98156.84;5008052;28;20067;-46
2022/05/06 00:28:12;;;;;;;28.58;20.42;;;12.70;99.90;;;12.89;68.89;98146.63;5006943;28;20054;-44
2022/05/06 00:30:40;;;;;;;29.90;19.30;;;12.70;99.90;;;12.88;68.91;98144.97;5008932;28;20064;-45
2022/05/06 00:33:09;;;;;;;28.42;18.30;;;12.70;99.90;;;12.93;69.00;98153.31;5005539;28;20058;-44
2022/05/06 00:35:37;;;;;;;25.95;18.48;;;12.70;99.90;;;12.93;68.64;98143.47;5006178;28;20062;-47
2022/05/06 00:38:06;;;;;;;29.83;18.88;;;12.70;99.90;;;12.99;68.73;98144.66;5007129;28;20244;-44
2022/05/06 00:40:34;;;;;;;26.08;19.48;;;12.80;99.90;;;13.01;68.75;98145.34;5005862;28;20056;-44
2022/05/06 00:43:01;;;;;;;26.10;17.77;;;12.80;99.90;;;12.97;68.67;98147.50;5007800;28;20723;-44
2022/05/06 00:45:44;;;;;;;27.98;19.08;;;12.80;99.90;;;12.86;68.95;98137.09;5006888;28;20543;-45
2022/05/06 00:48:12;;;;;;;27.15;18.35;;;12.60;99.90;;;12.79;68.96;98136.09;4990542;28;20062;-47
2022/05/06 00:50:41;;;;;;;26.95;18.42;;;12.50;99.90;;;12.82;69.06;98140.28;4989609;28;20053;-46
2022/05/06 00:53:10;;;;;;;30.65;19.08;;;12.50;99.90;;;12.81;69.21;98144.78;5006722;28;20048;-45
2022/05/06 00:55:38;;;;;;;29.30;18.58;;;12.50;99.90;;;12.74;69.16;98136.59;5007201;28;20053;-46
2022/05/06 00:58:06;;;;;;;29.35;18.75;;;12.60;99.90;;;12.70;69.05;98135.25;5006545;28;20364;-44
2022/05/06 01:00:34;;;;;;;27.00;18.75;;;12.50;99.90;;;12.63;69.39;98141.38;5006932;28;20061;-46
2022/05/06 01:03:03;;;;;;;25.40;18.27;;;12.40;99.90;;;12.69;69.30;98140.75;4989253;28;20083;-45
2022/05/06 01:05:31;;;;;;;26.92;17.38;;;12.50;99.90;;;12.72;69.12;98138.59;5007255;28;20046;-45
2022/05/06 01:08:01;;;;;;;24.85;18.27;;;12.50;99.90;;;12.66;69.36;98141.91;4988682;28;20059;-44
2022/05/06 01:10:29;;;;;;;30.00;18.83;;;12.50;99.90;;;12.61;69.25;98138.88;5006166;28;20259;-45
2022/05/06 01:12:58;;;;;;;25.10;18.52;;;12.40;99.90;;;12.59;69.43;98139.03;5005513;28;20049;-46
2022/05/06 01:15:29;;;;;;;27.58;18.30;;;12.40;99.90;;;12.55;69.67;98142.19;5020583;28;20058;-46
2022/05/06 01:18:13;;;;;;;28.10;17.20;;;12.40;99.90;;;12.57;69.77;98142.88;5020987;28;20249;-44
2022/05/06 01:20:48;;;;;;;24.65;17.15;;;12.40;99.90;;;12.57;69.76;98143.69;5005012;28;20080;-45
2022/05/06 01:23:16;;;;;;;25.35;16.52;;;12.40;99.90;;;12.63;69.51;98146.72;5006993;28;20053;-44
2022/05/06 01:25:45;;;;;;;27.55;17.63;;;12.40;99.90;;;12.68;69.41;98152.41;5022105;28;20292;-46
2022/05/06 01:28:14;;;;;;;26.90;20.13;;;12.50;99.90;;;12.72;69.25;98151.94;5007329;28;20049;-44
2022/05/06 01:30:47;;;;;;;24.67;18.40;;;12.50;99.90;;;12.75;69.37;98148.09;5006937;28;20064;-44
2022/05/06 01:33:21;;;;;;;27.30;17.55;;;12.60;99.90;;;12.78;69.44;98150.47;5006917;28;20050;-44
2022/05/06 01:35:52;;;;;;;23.05;17.85;;;12.70;99.90;;;12.74;69.87;98147.28;5008299;28;20050;-46
2022/05/06 01:38:34;;;;;;;27.88;18.48;;;12.60;99.90;;;12.69;70.05;98151.41;5004576;28;20058;-44
2022/05/06 01:41:08;;;;;;;29.95;19.05;;;12.40;99.90;;;12.66;70.08;98155.25;5005890;28;20060;-45
2022/05/06 01:43:53;;;;;;;34.20;19.67;;;12.30;99.90;;;12.53;71.01;98152.22;4990793;28;20065;-46
2022/05/06 01:46:25;;;;;;;32.80;22.58;;;12.30;99.90;;;12.48;71.28;98152.66;5005025;28;20061;-50
2022/05/06 01:48:59;;;;;;;28.40;19.15;;;12.20;99.90;;;12.46;71.08;98156.50;4989272;28;20360;-46
2022/05/06 01:51:32;;;;;;;33.33;21.05;;;12.20;99.90;;;12.47;71.22;98153.69;4989884;28;20256;-48
2022/05/06 01:54:03;;;;;;;33.22;21.40;;;12.20;99.90;;;12.46;71.38;98152.00;5005959;28;20481;-46
2022/05/06 01:56:32;;;;;;;34.38;20.02;;;12.10;99.90;;;12.45;72.02;98153.00;5009310;28;20088;-44
2022/05/06 01:59:01;;;;;;;36.58;23.73;;;12.10;99.90;;;12.49;71.58;98157.03;5008083;28;20057;-46
2022/05/06 02:01:32;;;;;;;34.88;21.23;;;12.10;99.90;;;12.55;71.53;98153.72;5008251;28;20058;-45
2022/05/06 02:06:48;;;;;;;32.20;21.10;;;12.20;99.90;;;12.53;71.86;98154.88;5024993;28;20068;-45
2022/05/06 02:09:22;;;;;;;31.13;22.02;;;12.20;99.90;;;12.50;71.83;98152.53;5008195;28;20054;-45
2022/05/06 02:11:54;;;;;;;29.92;21.00;;;12.10;99.90;;;12.54;71.70;98153.88;5008424;28;20062;-48
2022/05/06 02:14:30;;;;;;;30.73;21.50;;;12.20;99.90;;;12.57;71.64;98148.22;4992431;28;20054;-45
2022/05/06 02:17:16;;;;;;;34.67;20.42;;;12.30;99.90;;;12.56;71.75;98152.72;5012410;28;20054;-45
2022/05/06 02:19:54;;;;;;;35.90;21.05;;;12.20;99.90;;;12.49;71.82;98151.69;5008601;28;20352;-47
2022/05/06 02:22:42;;;;;;;27.58;19.70;;;12.20;99.90;;;12.48;72.21;98150.00;5024067;28;20046;-45
2022/05/06 02:25:24;;;;;;;31.10;20.05;;;12.20;99.90;;;12.48;72.03;98149.19;5007090;28;20069;-45
2022/05/06 02:28:01;;;;;;;30.48;19.58;;;12.20;99.90;;;12.42;72.31;98150.66;5008421;28;20132;-47
2022/05/06 02:33:23;;;;;;;34.85;21.75;;;12.20;99.90;;;12.50;71.89;98152.53;5007353;28;20050;-46
2022/05/06 02:36:02;;;;;;;29.13;21.10;;;12.20;99.90;;;12.46;72.04;98156.50;5009481;28;20068;-45
2022/05/06 02:38:33;;;;;;;33.53;21.67;;;12.20;99.90;;;12.41;72.29;98157.84;5007245;28;20366;-47
2022/05/06 02:41:03;;;;;;;28.08;19.83;;;12.10;99.90;;;12.49;72.09;98150.88;5024867;28;20046;-48
2022/05/06 02:43:41;;;;;;;30.40;19.73;;;12.20;99.90;;;12.55;71.89;98161.72;5008288;28;20348;-44
2022/05/06 02:46:09;;;;;;;30.08;19.55;;;12.30;99.90;;;12.55;72.27;98155.56;5007768;28;20348;-45
2022/05/06 02:48:37;;;;;;;28.25;18.83;;;12.30;99.90;;;12.54;72.03;98157.41;5009500;28;20068;-46
2022/05/06 02:51:08;;;;;;;31.58;19.05;;;12.30;99.90;;;12.50;72.07;98156.03;5008447;28;20060;-43
2022/05/06 02:53:39;;;;;;;29.90;20.70;;;12.20;99.90;;;12.54;71.94;98165.41;5023568;28;20386;-45
2022/05/06 02:56:07;;;;;;;27.70;18.75;;;12.30;99.90;;;12.54;71.68;98164.56;5008801;28;20053;-49
2022/05/06 02:58:44;;;;;;;27.40;17.88;;;12.30;99.90;;;12.49;72.21;98159.69;5023511;28;20064;-47
2022/05/06 03:01:13;;;;;;;31.20;19.38;;;12.20;99.90;;;12.44;72.12;98154.00;5008252;28;20060;-43
2022/05/06 03:03:44;;;;;;;28.20;19.98;;;12.10;99.90;;;12.39;72.25;98157.16;5023695;28;20062;-44
2022/05/06 03:06:18;;;;;;;23.30;17.23;;;12.10;99.90;;;12.34;72.50;98155.97;5007244;28;20250;-43
2022/05/06 03:08:47;;;;;;;27.20;17.20;;;12.00;99.90;;;12.35;72.14;98149.63;5009241;28;20064;-47
2022/05/06 03:11:19;;;;;;;29.05;20.05;;;12.00;99.90;;;12.39;72.19;98157.16;5008493;28;20081;-46
2022/05/06 03:13:56;;;;;;;31.40;19.38;;;12.10;99.90;;;12.44;72.12;98155.84;5007266;28;20056;-44
2022/05/06 03:16:30;;;;;;;;;;;12.10;99.90;;;12.39;71.92;98156.34;5008842;28;20378;-45
2022/05/06 03:19:00;;;;;;;28.30;19.38;;;12.10;99.90;;;12.38;72.27;98144.78;5007509;28;20134;-45
2022/05/06 03:21:28;;;;;;;27.75;19.48;;;12.10;99.90;;;12.45;72.21;98153.00;5007869;28;20057;-44
2022/05/06 03:23:59;;;;;;;25.77;18.60;;;12.10;99.90;;;12.48;71.93;98151.84;5022201;28;20046;-44
2022/05/06 03:26:28;;;;;;;30.30;19.45;;;12.20;99.90;;;12.53;71.88;98153.03;5008460;28;20038;-45
2022/05/06 03:28:57;;;;;;;26.02;19.52;;;12.30;99.90;;;12.48;71.94;98149.19;5008478;28;20060;-46
2022/05/06 03:31:26;;;;;;;29.58;20.00;;;12.20;99.90;;;12.50;71.92;98148.00;5006594;28;20062;-46
2022/05/06 03:34:02;;;;;;;28.00;17.55;;;12.30;99.90;;;12.52;71.94;98147.84;5006377;28;20340;-45
2022/05/06 03:36:36;;;;;;;30.92;19.27;;;12.20;99.90;;;12.45;72.26;98146.84;5006780;28;20046;-46
2022/05/06 03:39:08;;;;;;;26.50;18.65;;;12.20;99.90;;;12.46;71.99;98152.00;5023676;28;20053;-45
2022/05/06 03:41:45;;;;;;;27.33;17.35;;;12.20;99.90;;;12.51;72.07;98152.38;5022916;28;20057;-44
2022/05/06 03:44:13;;;;;;;28.80;19.95;;;12.30;99.90;;;12.43;72.06;98148.81;5023080;28;20071;-44
2022/05/06 03:46:45;;;;;;;27.95;18.27;;;12.10;99.90;;;12.40;72.03;98161.47;5008976;28;20080;-46
2022/05/06 03:49:20;;;;;;;26.45;18.23;;;12.10;99.90;;;12.37;72.44;98151.16;5023595;28;20065;-48
2022/05/06 03:51:48;;;;;;;30.38;19.83;;;12.10;99.90;;;12.41;72.32;98151.66;5009085;28;20057;-44
2022/05/06 03:54:20;;;;;;;26.95;19.40;;;12.10;99.90;;;12.40;72.18;98158.81;5022361;28;20061;-47
2022/05/06 03:56:50;;;;;;;32.03;20.80;;;12.10;99.90;;;12.37;72.15;98159.16;5023714;28;20064;-44
2022/05/06 03:59:19;;;;;;;42.30;28.08;;;12.00;99.90;;;12.30;72.43;98158.09;5023049;28;20046;-45
2022/05/06 04:01:55;;;;;;;34.47;24.23;;;12.00;99.90;;;12.32;72.50;98160.63;5006927;28;20058;-45
2022/05/06 04:04:30;;;;;;;36.25;21.95;;;12.00;99.90;;;12.30;72.59;98162.63;5022612;28;20070;-45
2022/05/06 04:07:01;;;;;;;33.10;20.88;;;12.00;99.90;;;12.30;72.87;98167.97;5006759;28;20611;-45
2022/05/06 04:09:32;;;;;;;33.03;22.15;;;12.00;99.90;;;12.30;72.62;98167.97;5005469;28;20062;-45
2022/05/06 04:12:02;;;;;;;32.80;21.65;;;12.00;99.90;;;12.22;72.95;98168.75;5006380;28;20050;-44
2022/05/06 04:14:30;;;;;;;31.73;21.38;;;11.90;99.90;;;12.20;73.02;98166.25;5021325;28;20079;-44
2022/05/06 04:16:58;;;;;;;33.22;21.42;;;11.90;99.90;;;12.29;72.84;98175.13;5009007;28;20049;-47
2022/05/06 04:19:32;;;;;;;32.00;22.23;;;12.00;99.90;;;12.32;72.96;98181.97;5021088;28;20077;-45
2022/05/06 04:24:59;;;;;;;34.75;21.77;;;12.00;99.90;;;12.31;72.90;98183.81;5006213;28;20054;-49
2022/05/06 04:27:33;;;;;;;34.33;26.15;;;12.00;99.90;;;12.35;72.63;98179.84;5023787;28;20360;-46
2022/05/06 04:30:03;;;;;;;30.77;21.02;;;12.10;99.90;;;12.39;72.43;98183.84;4990878;28;20060;-45
2022/05/06 04:32:43;;;;;;;27.98;19.67;;;12.10;99.90;;;12.32;72.85;98190.00;5005745;28;20050;-45
2022/05/06 04:35:15;;;;;;;29.95;22.40;;;12.00;99.90;;;12.31;72.88;98193.66;5005911;28;20069;-46
2022/05/06 04:37:45;;;;;;;37.05;26.33;;;12.00;99.90;;;12.35;72.94;98192.34;5006485;28;20056;-47
2022/05/06 04:40:13;;;;;;;36.72;24.33;;;12.10;99.90;;;12.35;72.81;98195.84;5022897;28;20068;-44
2022/05/06 04:42:41;;;;;;;31.05;21.55;;;12.10;99.90;;;12.36;72.67;98202.84;5021466;28;20743;-46
2022/05/06 04:45:10;;;;;;;32.03;21.30;;;12.00;99.90;;;12.37;73.01;98201.03;5007485;28;20057;-47
2022/05/06 07:46:57;;;;;;;12.85;9.68;;;13.00;99.90;;;13.12;70.52;98259.94;5014924;28;20235;-45
2022/05/06 07:49:25;;;;;;;12.50;10.70;;;13.10;99.90;;;13.23;69.99;98272.19;5020148;28;20037;-46
2022/05/06 07:51:53;;;;;;;15.63;12.85;;;13.20;99.90;;;13.31;69.66;98268.72;5040276;28;20393;-45
2022/05/06 07:54:21;;;;;;;15.70;12.48;;;13.40;99.90;;;13.37;69.27;98265.38;5036880;28;20216;-45
2022/05/06 07:56:49;;;;;;;13.85;10.20;;;13.60;99.90;;;13.37;68.64;98262.72;5036281;28;20056;-46
2022/05/06 07:59:17;;;;;;;8.57;7.20;;;13.50;99.90;;;13.41;68.84;98261.38;5027052;28;20394;-45
2022/05/06 08:04:35;;;;;;;7.03;5.68;;;13.50;99.90;;;13.50;67.90;98279.13;5009303;28;20156;-46
2022/05/06 08:07:07;;;;;;;7.47;5.72;;;13.60;99.90;;;13.53;67.89;98275.28;5008196;28;20044;-48
2022/05/06 08:09:35;;;;;;;7.90;7.10;;;13.60;99.90;;;13.58;67.54;98276.47;5009269;28;20083;-47
2022/05/06 08:12:04;;;;;;;6.95;5.82;;;13.60;99.90;;;13.67;67.63;98282.69;5007835;28;20107;-47
2022/05/06 08:14:32;;;;;;;7.97;5.85;;;13.80;99.90;;;13.63;66.54;98284.00;4989446;28;20883;-48
2022/05/06 08:17:01;;;;;;;9.70;5.97;;;13.70;99.90;;;13.67;66.23;98276.50;5018597;28;20856;-42
2022/05/06 08:19:29;;;;;;;8.60;5.75;;;13.70;99.90;;;13.70;65.84;98276.16;5017694;28;20056;-42
2022/05/06 08:21:57;;;;;;;7.57;5.50;;;13.70;99.90;;;13.73;65.67;98281.19;5018976;28;20038;-46
2022/05/06 08:24:27;;;;;;;9.30;6.22;;;13.70;99.90;;;13.78;65.68;98278.81;5018655;28;20042;-44
2022/05/06 08:26:54;;;;;;;8.48;6.22;;;13.90;99.90;;;13.79;65.07;98275.16;5032998;28;20038;-45
2022/05/06 08:29:22;;;;;;;7.45;6.05;;;13.90;99.90;;;13.85;65.53;98284.38;5042583;28;20052;-46
2022/05/06 08:31:51;;;;;;;6.97;5.05;;;13.90;99.90;;;13.90;64.90;98290.03;5041882;28;20079;-44
2022/05/06 08:34:19;;;;;;;7.65;5.70;;;14.00;99.90;;;13.96;65.11;98289.41;5036784;28;20057;-45
2022/05/06 08:36:47;;;;;;;7.97;6.38;;;14.10;99.90;;;13.99;64.79;98281.00;5019350;28;20243;-44
2022/05/06 08:39:16;;;;;;;7.85;6.50;;;14.10;99.90;;;14.07;64.38;98285.53;5017958;28;20343;-44
2022/05/06 08:41:43;;;;;;;10.57;8.07;;;14.30;99.90;;;14.15;64.64;98283.69;5018762;28;20045;-44
2022/05/06 08:52:43;;;;;;;6.40;4.90;;;14.50;97.60;;;14.32;63.21;98278.31;5042224;28;20045;-42
2022/05/06 08:55:11;;;;;;;9.00;5.63;;;14.40;99.60;;;14.36;63.49;98283.19;5024958;28;20249;-44
2022/05/06 08:57:41;;;;;;;7.20;5.70;;;14.50;97.00;;;14.41;63.09;98288.00;5023780;28;20049;-42
2022/05/06 09:00:10;;;;;;;9.50;5.43;;;14.50;92.80;;;14.38;62.69;98285.66;5042052;28;20051;-43
2022/05/06 09:02:39;;;;;;;8.13;5.32;;;14.50;92.00;;;14.41;62.98;98285.34;5022954;28;20037;-43
2022/05/06 09:05:24;;;;;;;8.48;6.00;;;14.50;91.50;;;14.38;61.87;98283.84;5039678;28;20049;-42
2022/05/06 09:08:05;;;;;;;6.55;5.13;;;14.50;84.60;;;14.30;61.17;98280.31;5036134;28;20053;-42
2022/05/06 09:10:32;;;;;;;7.03;5.45;;;14.30;85.10;;;14.34;61.63;98281.66;5035843;28;20049;-42
2022/05/06 09:13:00;;;;;;;7.20;5.57;;;14.40;86.80;;;14.43;61.95;98283.31;5018963;28;20053;-42
2022/05/06 09:18:23;;;;;;;9.13;5.53;;;14.60;85.60;;;14.60;62.11;98283.31;5031028;28;20076;-42
2022/05/06 09:24:17;;;;;;;8.68;6.00;;;14.90;82.90;;;14.79;62.14;98280.22;5234839;23;20047;-46
2022/05/06 09:27:16;;;;;;;15.25;5.55;;;15.10;81.70;;;14.88;60.90;98278.38;4923527;29;20067;-47
2022/05/06 09:29:49;;;;;;;5.75;4.18;;;15.20;79.20;;;14.99;61.12;98283.38;4916237;29;20117;-43
2022/05/06 09:32:25;;;;;;;8.75;4.93;;;15.30;80.50;;;15.02;59.79;98285.69;4945760;29;20047;-44
2022/05/06 09:34:55;;;;;;;7.10;4.05;;;15.30;77.80;;;14.95;58.49;98284.72;4931209;29;20229;-43
2022/05/06 09:37:37;;;;;;;5.97;4.15;;;15.30;72.60;;;14.99;58.55;98280.69;4937536;29;20043;-42
2022/05/06 09:40:09;;;;;;;7.03;4.95;;;15.30;73.70;;;14.99;57.55;98280.69;4935607;29;20052;-42
2022/05/06 09:42:53;;;;;;;10.18;4.78;;;15.30;73.50;;;15.13;58.85;98284.47;4936948;29;20086;-43
2022/05/06 09:45:39;;;;;;;5.97;4.35;;;15.40;75.10;;;15.17;58.22;98283.13;4944379;29;20043;-43
2022/05/06 09:48:14;;;;;;;5.05;4.55;;;15.50;71.20;;;15.27;58.26;98289.09;4925151;29;20341;-42
2022/05/06 09:50:48;;;;;;;6.15;4.55;;;15.60;74.60;;;15.26;57.66;98281.25;4925487;29;20046;-44
2022/05/06 09:53:24;;;;;;;6.63;4.78;;;15.50;72.60;;;15.36;57.19;98271.13;4925314;29;20052;-44
2022/05/06 09:55:52;;;;;;;8.32;4.70;;;15.70;71.30;;;15.41;56.18;98274.13;4923560;29;20055;-42
2022/05/06 09:58:27;;;;;;;5.07;3.90;;;15.70;67.10;;;15.46;55.78;98273.56;4922925;29;20227;-44
2022/05/06 10:00:55;;;;;;;5.80;3.78;;;15.80;70.40;;;15.53;55.84;98275.38;4905503;29;20054;-43
2022/05/06 10:03:23;;;;;;;5.45;3.78;;;15.80;66.20;;;15.55;54.72;98267.16;4920378;29;20054;-44
2022/05/06 10:05:51;;;;;;;6.85;4.32;;;15.90;65.50;;;15.52;53.59;98276.38;4917309;29;20056;-44
2022/05/06 10:08:21;;;;;;;7.75;4.18;;;15.90;64.10;;;15.58;54.61;98272.16;4900596;29;20716;-44
2022/05/06 10:11:04;;;;;;;5.93;4.53;;;15.90;67.60;;;15.67;54.69;98268.41;4901491;29;20240;-44
2022/05/06 10:13:35;;;;;;;5.95;3.58;;;16.10;65.60;;;15.74;54.46;98266.72;4913954;29;20075;-43
2022/05/06 10:16:04;;;;;;;7.30;4.05;;;16.20;67.70;;;15.85;55.09;98265.44;4898970;29;20055;-42
2022/05/06 10:18:43;;;;;;;6.07;3.60;;;16.20;66.90;;;15.90;54.23;98267.59;4914121;29;20056;-42
2022/05/06 10:21:14;;;;;;;7.18;3.70;;;16.30;65.60;;;15.94;54.24;98269.75;4914498;29;20039;-44
2022/05/06 10:23:46;;;;;;;4.20;3.10;;;16.40;66.80;;;16.03;54.06;98267.84;4915573;29;20245;-46
2022/05/06 10:26:36;;;;;;;6.25;3.28;;;16.50;66.20;;;16.08;50.94;98273.47;4917868;29;20054;-42
2022/05/06 10:34:57;;;;;;;7.30;2.83;;;16.80;59.40;;;16.34;48.48;98269.53;4915536;29;20048;-44
2022/05/06 10:37:38;;;;;;;5.55;2.58;;;16.80;57.10;;;16.43;50.36;98268.47;4914192;29;20048;-42
2022/05/06 10:40:57;;;;;;;6.53;3.30;;;16.90;59.30;;;16.52;50.59;98262.00;4912903;29;20062;-42
2022/05/06 10:43:39;;;;;;;6.13;2.70;;;17.10;57.20;;;16.58;48.50;98262.28;4854134;29;20367;-42
2022/05/06 10:46:36;;;;;;;3.83;2.65;;;17.10;56.30;;;16.66;50.43;98263.00;4912602;29;20058;-42
2022/05/06 10:49:35;;;;;;;3.83;2.65;;;17.10;55.40;;;16.71;46.37;98251.69;4912415;29;20054;-43
2022/05/06 10:52:33;;;;;;;6.47;3.38;;;17.20;55.20;;;16.74;48.01;98259.41;4912756;29;20054;-43
2022/05/06 10:55:03;;;;;;;4.07;3.03;;;17.30;54.00;;;16.78;47.44;98260.69;4892104;29;20082;-46
2022/05/06 10:57:55;;;;;;;4.78;3.13;;;17.30;55.20;;;16.85;47.48;98256.28;4913291;29;20066;-43
2022/05/06 11:00:29;;;;;;;5.10;2.75;;;17.40;57.50;;;16.97;48.83;98261.19;4896373;29;20044;-44
2022/05/06 11:02:58;;;;;;;3.17;2.28;;;17.40;56.60;;;16.98;46.90;98260.16;4896092;29;20428;-44
2022/05/06 11:05:29;;;;;;;6.03;2.53;;;17.50;52.40;;;16.95;47.68;98255.16;4914052;29;20060;-44
2022/05/06 11:08:00;;;;;;;4.75;3.00;;;17.40;54.50;;;16.96;46.03;98251.44;4895869;29;20083;-44
2022/05/06 11:10:31;;;;;;;4.93;3.05;;;17.50;55.00;;;17.05;46.70;98251.16;4896198;29;20070;-44
2022/05/06 11:13:23;;;;;;;4.93;2.40;;;17.60;55.40;;;17.08;46.62;98247.28;4913814;29;20258;-45
2022/05/06 11:15:51;;;;;;;3.95;3.25;;;17.60;53.20;;;17.19;47.12;98246.75;4881380;29;20064;-43
2022/05/06 11:18:19;;;;;;;5.45;2.78;;;17.70;55.10;;;17.24;46.06;98249.72;4895463;29;20052;-43
2022/05/06 11:20:47;;;;;;;8.88;3.13;;;17.80;53.50;;;17.34;47.06;98251.28;4912626;29;20054;-43
2022/05/06 11:23:15;;;;;;;5.45;2.65;;;17.90;54.90;;;17.34;45.39;98260.19;4895022;29;20048;-45
2022/05/06 11:25:47;;;;;;;3.97;2.50;;;17.80;50.50;;;17.37;45.65;98250.91;4896250;29;20058;-43
2022/05/06 11:28:21;;;;;;;4.82;2.95;;;17.90;52.90;;;17.34;44.25;98254.81;4895670;29;20048;-43
2022/05/06 11:30:51;;;;;;;4.45;3.03;;;17.80;50.70;;;17.35;45.42;98244.88;4911697;29;20351;-43
2022/05/06 11:33:24;;;;;;;3.58;3.25;;;17.80;52.90;;;17.35;43.96;98248.41;4911898;29;20055;-44
2022/05/06 11:36:06;;;;;;;6.47;2.85;;;17.80;49.20;;;17.37;44.21;98242.81;4912234;29;20048;-45
2022/05/06 11:38:46;;;;;;;3.78;3.28;;;17.90;50.50;;;17.48;46.20;98253.09;4912483;29;20054;-42
2022/05/06 11:41:17;;;;;;;6.25;3.17;;;17.90;53.90;;;17.48;45.16;98250.41;4911292;29;20054;-42
2022/05/06 11:43:46;;;;;;;4.15;3.67;;;18.00;51.90;;;17.59;45.91;98251.78;4911315;29;20052;-43
2022/05/06 11:49:07;;;;;;;5.28;3.60;;;18.20;52.20;;;17.67;45.42;98252.47;4911661;29;20272;-42
2022/05/06 11:51:44;;;;;;;4.32;3.40;;;18.20;51.80;;;17.73;45.55;98247.34;4894489;29;20056;-43
2022/05/06 11:54:15;;;;;;;5.25;4.13;;;18.20;52.90;;;17.83;45.59;98243.28;4913238;29;20275;-44
2022/05/06 11:56:44;;;;;;;6.28;4.35;;;18.40;53.10;;;17.87;44.91;98249.16;4911456;29;20058;-42
2022/05/06 11:59:13;;;;;;;5.10;3.08;;;18.40;51.20;;;17.87;44.65;98244.63;4911497;29;20068;-44
2022/05/06 12:01:42;;;;;;;4.57;3.55;;;18.40;51.50;;;17.85;43.96;98240.44;4894812;29;20054;-44
2022/05/06 12:04:11;;;;;;;5.60;3.40;;;18.40;49.80;;;17.84;43.77;98245.00;4912149;29;20058;-43
2022/05/06 12:06:50;;;;;;;6.07;3.58;;;18.30;49.80;;;17.90;44.49;98244.22;4911118;29;20052;-44
2022/05/06 12:09:24;;;;;;;12.77;7.25;;;18.30;51.10;;;17.97;44.31;98246.13;4910656;29;20121;-42
2022/05/06 12:12:07;;;;;;;5.72;3.80;;;18.40;52.20;;;17.98;43.73;98239.75;4910143;29;20085;-43
2022/05/06 12:14:37;;;;;;;5.45;3.88;;;18.50;50.20;;;18.06;44.23;98248.50;4910878;29;20064;-42
2022/05/06 12:17:14;;;;;;;6.20;4.03;;;18.60;50.10;;;18.07;43.16;98246.66;4911213;29;20368;-44
2022/05/06 12:19:46;;;;;;;6.20;4.07;;;18.60;49.40;;;18.01;43.97;98240.19;4893177;29;20438;-45
2022/05/06 12:22:22;;;;;;;5.53;3.97;;;18.50;50.80;;;18.03;44.29;98251.59;4895088;29;20049;-42
2022/05/06 12:24:57;;;;;;;5.30;3.88;;;18.50;51.70;;;18.16;44.88;98244.66;4928486;29;20043;-43
2022/05/06 12:27:37;;;;;;;6.32;4.28;;;18.70;51.60;;;18.20;43.92;98240.53;4922716;29;20039;-42
2022/05/06 12:30:16;;;;;;;9.68;4.30;;;18.80;51.30;;;18.26;44.39;98239.75;4928533;29;20043;-42
2022/05/06 12:33:07;;;;;;;5.20;4.32;;;18.90;50.00;;;18.26;43.40;98250.53;4930407;29;20069;-44
2022/05/06 12:35:56;;;;;;;4.88;4.10;;;18.90;49.60;;;18.31;43.74;98240.00;4928747;29;20059;-43
2022/05/06 12:38:46;;;;;;;6.03;4.47;;;18.90;48.80;;;18.38;42.68;98238.19;4935734;29;20059;-42
2022/05/06 12:41:21;;;;;;;6.05;4.30;;;19.10;48.20;;;18.54;43.95;98231.66;4938995;29;20202;-43
2022/05/06 12:43:50;;;;;;;5.30;4.40;;;19.20;49.80;;;18.59;43.10;98233.75;4941054;29;20050;-43
2022/05/06 12:46:30;;;;;;;6.50;4.78;;;19.20;49.20;;;18.62;42.50;98227.97;4939454;29;20056;-42
2022/05/06 12:51:47;;;;;;;6.00;4.25;;;19.40;48.60;;;18.81;42.92;98224.56;4926158;29;20051;-43
2022/05/06 12:54:15;;;;;;;5.55;4.07;;;19.50;49.40;;;18.94;43.97;98225.66;4922990;29;20056;-44
2022/05/06 12:56:43;;;;;;;7.18;4.60;;;19.70;50.30;;;19.15;44.43;98227.41;4940032;29;20062;-44
2022/05/06 12:59:11;;;;;;;9.80;5.38;;;19.90;50.70;;;19.22;42.23;98226.41;4938011;29;20051;-43
2022/05/06 13:01:40;;;;;;;7.03;4.47;;;20.10;48.70;;;19.34;41.44;98221.25;4937847;29;20040;-43
2022/05/06 13:04:09;;;;;;;6.72;4.47;;;20.20;44.30;;;19.39;42.47;98217.97;4936221;29;20059;-43
2022/05/06 13:06:38;;;;;;;9.68;5.00;;;20.20;47.30;;;19.48;42.58;98219.41;4939911;29;20315;-42
2022/05/06 13:09:08;;;;;;;7.03;4.10;;;20.20;48.00;;;19.49;42.38;98221.09;4924089;29;20048;-44
2022/05/06 13:11:37;;;;;;;5.47;4.45;;;20.20;48.40;;;19.55;42.80;98230.25;4940940;29;20055;-43
2022/05/06 13:14:07;;;;;;;5.80;4.85;;;20.30;48.70;;;19.61;42.16;98224.84;4940732;29;20118;-43
2022/05/06 13:16:36;;;;;;;4.97;3.72;;;20.40;46.30;;;19.64;42.70;98219.03;4940535;29;20353;-43
2022/05/06 13:19:09;;;;;;;5.85;4.30;;;20.40;48.60;;;19.76;43.08;98222.00;4940575;29;20054;-44
2022/05/06 13:21:38;;;;;;;4.88;3.97;;;20.50;48.90;;;19.88;42.24;98219.50;4939282;29;20371;-44
2022/05/06 13:24:09;;;;;;;7.75;5.68;;;20.70;47.90;;;19.95;41.71;98208.69;4940218;29;20367;-43
2022/05/06 13:26:38;;;;;;;6.57;4.80;;;20.70;46.80;;;20.05;42.11;98207.25;4940470;29;20061;-43
2022/05/06 13:29:12;;;;;;;8.23;4.80;;;20.90;47.90;;;20.15;41.80;98208.69;4940745;29;20044;-44
2022/05/06 13:31:39;;;;;;;7.90;4.50;;;20.90;47.20;;;20.11;41.18;98207.47;4923578;29;20072;-42
2022/05/06 13:34:07;;;;;;;6.70;4.53;;;20.80;45.60;;;20.01;40.60;98214.09;4939966;29;20060;-43
2022/05/06 13:36:38;;;;;;;6.13;4.35;;;20.60;45.20;;;20.00;40.61;98212.44;4939272;29;20240;-43
2022/05/06 13:39:06;;;;;;;6.13;4.18;;;20.50;46.60;;;20.01;41.62;98216.00;4939513;29;20036;-43
2022/05/06 13:41:33;;;;;;;4.30;3.80;;;20.50;47.60;;;20.02;41.03;98215.75;4938860;29;20047;-42
2022/05/06 13:44:01;;;;;;;4.90;4.03;;;20.70;46.30;;;20.04;40.82;98212.84;4939776;29;20047;-42
2022/05/06 13:46:33;;;;;;;9.35;4.88;;;20.80;45.70;;;20.11;40.93;98216.41;4940093;29;20340;-43
2022/05/06 13:49:04;;;;;;;5.30;4.10;;;20.80;45.60;;;20.13;40.14;98208.09;4934635;29;20044;-43
2022/05/06 13:51:32;;;;;;;5.35;4.10;;;20.80;45.00;;;20.19;40.47;98210.75;4941400;29;20356;-43
2022/05/06 13:54:00;;;;;;;8.30;4.90;;;20.90;45.50;;;20.29;40.99;98214.94;4943439;29;20066;-43
2022/05/06 13:59:15;;;;;;;5.38;4.03;;;21.10;46.10;;;20.36;40.03;98204.94;4929704;29;20058;-42
2022/05/06 14:01:44;;;;;;;6.05;4.75;;;21.10;45.00;;;20.46;40.29;98202.63;4942917;29;20039;-43
2022/05/06 14:04:12;;;;;;;7.55;4.72;;;21.10;45.40;;;20.44;39.87;98205.53;4943522;29;20253;-43
2022/05/06 14:06:40;;;;;;;5.28;3.72;;;21.10;44.50;;;20.44;39.70;98199.31;4943499;29;20214;-43
2022/05/06 14:09:08;;;;;;;7.32;4.18;;;21.10;45.10;;;20.46;40.71;98203.44;4944297;29;20203;-44
2022/05/06 14:11:36;;;;;;;6.20;4.88;;;21.20;45.60;;;20.53;39.96;98199.91;4942036;29;20044;-43
2022/05/06 14:14:04;;;;;;;5.75;3.90;;;21.30;45.10;;;20.55;39.95;98209.47;4941894;29;20349;-45